Seabourn Odyssey — C6XC6 — position and weather

sailwx.info

Track history (hours):
 
Tides and Currents Weather Stations Pressure Air Temp Water Temp Dewpoint Dewpoint Depression Visibility Wind Speed Wind Dir Waves Ship Positions

Seabourn Odyssey

Last reported at 2018-Aug-14 19:04 UTC. Time now 2018-Aug-18 00:47 UTC.
Position N 37°08' E 024°53'.

Length 198 m; draft 6.7 m.

Type: Ship. MMSI: 309416000.

Date/timePositionNaut miles runAvg speedWind from/ knotsBaromVisibWave heightAir tempDewpointWater temp
2018-Aug-14 19:04N 37°08' E 024°53'113.8
2018-Aug-14 19:00N 37°09' E 024°53'713.9
2018-Aug-14 18:30N 37°16' E 024°56'612.8
2018-Aug-14 18:01N 37°21' E 024°60'510.2
2018-Aug-14 17:30N 37°27' E 025°00'3 4.9
2018-Aug-14 16:56N 37°26' E 024°57'0 0.0
2018-Aug-14 07:03N 37°26' E 024°57'0 2.7
2018-Aug-14 06:57N 37°26' E 024°57'712.9
2018-Aug-14 06:26N 37°24' E 025°05'716.1
2018-Aug-14 06:01N 37°19' E 025°11'815.8
2018-Aug-14 05:31N 37°13' E 025°18'4 8.7
2018-Aug-14 05:00N 37°10' E 025°21'3 6.7
2018-Aug-14 04:30N 37°07' E 025°21'1 1.1
2018-Aug-14 04:00N 37°06' E 025°21'3 5.0
2018-Aug-14 03:30N 37°09' E 025°21'3 6.0
2018-Aug-14 03:00N 37°11' E 025°23'3 6.4
2018-Aug-14 02:30N 37°13' E 025°27'3 7.0
2018-Aug-14 02:00N 37°14' E 025°30'4 9.0
2018-Aug-14 01:30N 37°16' E 025°35'5 8.7
2018-Aug-14 00:58N 37°19' E 025°41'4 7.9
2018-Aug-14 00:30N 37°22' E 025°43'5 8.1
2018-Aug-13 23:55N 37°26' E 025°44'3 8.4
2018-Aug-13 23:30N 37°29' E 025°42'4 8.4
2018-Aug-13 23:00N 37°32' E 025°38'4 8.9
2018-Aug-13 22:30N 37°34' E 025°33'4 8.5
2018-Aug-13 22:00N 37°34' E 025°28'4 8.9
2018-Aug-13 21:30N 37°33' E 025°23'5 9.5
2018-Aug-13 21:00N 37°31' E 025°17'4 7.3
2018-Aug-13 20:30N 37°28' E 025°19'0 0.9
2018-Aug-13 20:00N 37°27' E 025°19'0 0.0
2018-Aug-13 19:27N 37°27' E 025°19'0 0.0
2018-Aug-13 18:48N 37°27' E 025°19'0 0.1
2018-Aug-13 18:30N 37°27' E 025°19'0 0.1
2018-Aug-13 18:00N 37°27' E 025°19'0 0.0
2018-Aug-13 17:24N 37°27' E 025°19'0 0.0
2018-Aug-13 16:57N 37°27' E 025°19'0 0.1
2018-Aug-13 16:27N 37°27' E 025°19'0 0.1
2018-Aug-13 15:57N 37°27' E 025°19'0 0.1
2018-Aug-13 15:24N 37°27' E 025°19'0 0.1
2018-Aug-13 15:00N 37°27' E 025°19'0 0.2
2018-Aug-13 14:30N 37°27' E 025°19'0 0.2
2018-Aug-13 13:57N 37°27' E 025°19'0 0.0
2018-Aug-13 13:27N 37°27' E 025°19'0 0.0
2018-Aug-13 13:00N 37°27' E 025°19'0 0.0
2018-Aug-13 12:27N 37°27' E 025°19'0 0.1
2018-Aug-13 12:00N 37°27' E 025°19'0 0.1
2018-Aug-13 11:30N 37°27' E 025°19'0 0.1
2018-Aug-13 10:57N 37°27' E 025°19'0 0.1
2018-Aug-13 10:30N 37°27' E 025°19'0 0.0
2018-Aug-13 09:54N 37°27' E 025°19'0 0.0
2018-Aug-13 09:24N 37°27' E 025°19'0 0.0
2018-Aug-13 08:54N 37°27' E 025°19'0 0.0
2018-Aug-13 08:30N 37°27' E 025°19'0 0.0
2018-Aug-13 08:00N 37°27' E 025°19'0 0.0
2018-Aug-13 07:30N 37°27' E 025°19'0 0.0
2018-Aug-13 07:00N 37°27' E 025°19'0 0.0
2018-Aug-13 06:30N 37°27' E 025°19'0 0.0
2018-Aug-13 06:00N 37°27' E 025°19'0 0.0
2018-Aug-13 05:30N 37°27' E 025°19'0 0.0
2018-Aug-13 05:00N 37°27' E 025°19'0 0.1
2018-Aug-13 04:30N 37°28' E 025°19'1 1.7
2018-Aug-13 04:00N 37°28' E 025°18'4 7.8
2018-Aug-13 03:30N 37°31' E 025°17'70 2.0
2018-Aug-11 16:31N 37°37' E 023°50'113.1
2018-Aug-11 16:26N 37°38' E 023°48'612.0
2018-Aug-11 15:54N 37°41' E 023°42'511.8
2018-Aug-11 15:31N 37°46' E 023°39'612.2
2018-Aug-11 15:01N 37°51' E 023°35'510.5
2018-Aug-11 14:30N 37°56' E 023°37'0 0.7
2018-Aug-11 14:00N 37°56' E 023°37'0 0.0
2018-Aug-11 13:30N 37°56' E 023°37'0 0.0
2018-Aug-11 13:00N 37°56' E 023°37'0 0.0
2018-Aug-11 12:30N 37°56' E 023°37'0 0.0
2018-Aug-11 12:00N 37°56' E 023°37'0 0.0
2018-Aug-11 11:30N 37°56' E 023°37'0 0.0
2018-Aug-11 11:00N 37°56' E 023°37'0 0.0
2018-Aug-11 10:30N 37°56' E 023°37'0 0.0
2018-Aug-11 10:00N 37°56' E 023°37'0 0.0
2018-Aug-11 09:30N 37°56' E 023°37'0 0.0
2018-Aug-11 09:00N 37°56' E 023°37'0 0.0
2018-Aug-11 08:30N 37°56' E 023°37'0 0.0
2018-Aug-11 08:00N 37°56' E 023°37'0 0.0
2018-Aug-11 07:30N 37°56' E 023°37'0 0.0
2018-Aug-11 07:00N 37°56' E 023°37'0 0.0
2018-Aug-11 06:30N 37°56' E 023°37'0 0.0
2018-Aug-11 06:00N 37°56' E 023°37'0 0.0
2018-Aug-11 05:30N 37°56' E 023°37'0 0.0
2018-Aug-11 05:00N 37°56' E 023°37'0 0.0
2018-Aug-11 04:30N 37°56' E 023°37'0 0.0
2018-Aug-11 04:00N 37°56' E 023°37'0 0.0
2018-Aug-11 03:30N 37°56' E 023°37'0 0.0
2018-Aug-11 03:00N 37°56' E 023°37'0 0.0
2018-Aug-11 02:30N 37°56' E 023°37'0 0.0
2018-Aug-11 02:00N 37°56' E 023°37'0 0.0
2018-Aug-11 01:30N 37°56' E 023°37'0 0.2
2018-Aug-11 01:00N 37°56' E 023°37'2 3.6
2018-Aug-11 00:30N 37°55' E 023°36'612.9
2018-Aug-11 00:00N 37°49' E 023°41'510.4
2018-Aug-10 23:30N 37°44' E 023°43'5 9.8
2018-Aug-10 23:00N 37°40' E 023°45'610.9
2018-Aug-10 22:29N 37°34' E 023°46'31 8.3
2018-Aug-10 18:49N 37°07' E 023°29'410.7
2018-Aug-10 18:27N 37°07' E 023°24'  
2018-Aug-05 01:12N 43°52' E 013°54'2218.1
2018-Aug-05 00:01N 44°03' E 013°28'118.1
2018-Aug-04 23:57N 44°04' E 013°26'818.1
2018-Aug-04 23:29N 44°09' E 013°17'817.6
2018-Aug-04 23:00N 44°16' E 013°11'917.7
2018-Aug-04 22:30N 44°25' E 013°07'1317.6
2018-Aug-04 21:46N 44°37' E 013°01'517.9
2018-Aug-04 21:30N 44°41' E 012°59'917.9
2018-Aug-04 21:00N 44°50' E 012°54'917.7
2018-Aug-04 20:29N 44°58' E 012°48'918.0
2018-Aug-04 20:00N 45°05' E 012°42'917.7
2018-Aug-04 19:31N 45°11' E 012°32'  
Track history (hours):
 
Tides and Currents Weather Stations Pressure Air Temp Water Temp Dewpoint Dewpoint Depression Visibility Wind Speed Wind Dir Waves Ship Positions

Seabourn Odyssey

Last reported at 2018-Aug-14 19:04 UTC. Time now 2018-Aug-18 00:47 UTC.
Position N 37°08' E 024°53'.

Length 198 m; draft 6.7 m.

Type: Ship. MMSI: 309416000.

Date/timePositionNaut miles runAvg speedWind from/ knotsBaromVisibWave heightAir tempDewpointWater temp
2018-Aug-14 19:04N 37°08' E 024°53'113.8
2018-Aug-14 19:00N 37°09' E 024°53'713.9
2018-Aug-14 18:30N 37°16' E 024°56'612.8
2018-Aug-14 18:01N 37°21' E 024°60'510.2
2018-Aug-14 17:30N 37°27' E 025°00'3 4.9
2018-Aug-14 16:56N 37°26' E 024°57'0 0.0
2018-Aug-14 07:03N 37°26' E 024°57'0 2.7
2018-Aug-14 06:57N 37°26' E 024°57'712.9
2018-Aug-14 06:26N 37°24' E 025°05'716.1
2018-Aug-14 06:01N 37°19' E 025°11'815.8
2018-Aug-14 05:31N 37°13' E 025°18'4 8.7
2018-Aug-14 05:00N 37°10' E 025°21'3 6.7
2018-Aug-14 04:30N 37°07' E 025°21'1 1.1
2018-Aug-14 04:00N 37°06' E 025°21'3 5.0
2018-Aug-14 03:30N 37°09' E 025°21'3 6.0
2018-Aug-14 03:00N 37°11' E 025°23'3 6.4
2018-Aug-14 02:30N 37°13' E 025°27'3 7.0
2018-Aug-14 02:00N 37°14' E 025°30'4 9.0
2018-Aug-14 01:30N 37°16' E 025°35'5 8.7
2018-Aug-14 00:58N 37°19' E 025°41'4 7.9
2018-Aug-14 00:30N 37°22' E 025°43'5 8.1
2018-Aug-13 23:55N 37°26' E 025°44'3 8.4
2018-Aug-13 23:30N 37°29' E 025°42'4 8.4
2018-Aug-13 23:00N 37°32' E 025°38'4 8.9
2018-Aug-13 22:30N 37°34' E 025°33'4 8.5
2018-Aug-13 22:00N 37°34' E 025°28'4 8.9
2018-Aug-13 21:30N 37°33' E 025°23'5 9.5
2018-Aug-13 21:00N 37°31' E 025°17'4 7.3
2018-Aug-13 20:30N 37°28' E 025°19'0 0.9
2018-Aug-13 20:00N 37°27' E 025°19'0 0.0
2018-Aug-13 19:27N 37°27' E 025°19'0 0.0
2018-Aug-13 18:48N 37°27' E 025°19'0 0.1
2018-Aug-13 18:30N 37°27' E 025°19'0 0.1
2018-Aug-13 18:00N 37°27' E 025°19'0 0.0
2018-Aug-13 17:24N 37°27' E 025°19'0 0.0
2018-Aug-13 16:57N 37°27' E 025°19'0 0.1
2018-Aug-13 16:27N 37°27' E 025°19'0 0.1
2018-Aug-13 15:57N 37°27' E 025°19'0 0.1
2018-Aug-13 15:24N 37°27' E 025°19'0 0.1
2018-Aug-13 15:00N 37°27' E 025°19'0 0.2
2018-Aug-13 14:30N 37°27' E 025°19'0 0.2
2018-Aug-13 13:57N 37°27' E 025°19'0 0.0
2018-Aug-13 13:27N 37°27' E 025°19'0 0.0
2018-Aug-13 13:00N 37°27' E 025°19'0 0.0
2018-Aug-13 12:27N 37°27' E 025°19'0 0.1
2018-Aug-13 12:00N 37°27' E 025°19'0 0.1
2018-Aug-13 11:30N 37°27' E 025°19'0 0.1
2018-Aug-13 10:57N 37°27' E 025°19'0 0.1
2018-Aug-13 10:30N 37°27' E 025°19'0 0.0
2018-Aug-13 09:54N 37°27' E 025°19'0 0.0
2018-Aug-13 09:24N 37°27' E 025°19'0 0.0
2018-Aug-13 08:54N 37°27' E 025°19'0 0.0
2018-Aug-13 08:30N 37°27' E 025°19'0 0.0
2018-Aug-13 08:00N 37°27' E 025°19'0 0.0
2018-Aug-13 07:30N 37°27' E 025°19'0 0.0
2018-Aug-13 07:00N 37°27' E 025°19'0 0.0
2018-Aug-13 06:30N 37°27' E 025°19'0 0.0
2018-Aug-13 06:00N 37°27' E 025°19'0 0.0
2018-Aug-13 05:30N 37°27' E 025°19'0 0.0
2018-Aug-13 05:00N 37°27' E 025°19'0 0.1
2018-Aug-13 04:30N 37°28' E 025°19'1 1.7
2018-Aug-13 04:00N 37°28' E 025°18'4 7.8
2018-Aug-13 03:30N 37°31' E 025°17'70 2.0
2018-Aug-11 16:31N 37°37' E 023°50'113.1
2018-Aug-11 16:26N 37°38' E 023°48'612.0
2018-Aug-11 15:54N 37°41' E 023°42'511.8
2018-Aug-11 15:31N 37°46' E 023°39'612.2
2018-Aug-11 15:01N 37°51' E 023°35'510.5
2018-Aug-11 14:30N 37°56' E 023°37'0 0.7
2018-Aug-11 14:00N 37°56' E 023°37'0 0.0
2018-Aug-11 13:30N 37°56' E 023°37'0 0.0
2018-Aug-11 13:00N 37°56' E 023°37'0 0.0
2018-Aug-11 12:30N 37°56' E 023°37'0 0.0
2018-Aug-11 12:00N 37°56' E 023°37'0 0.0
2018-Aug-11 11:30N 37°56' E 023°37'0 0.0
2018-Aug-11 11:00N 37°56' E 023°37'0 0.0
2018-Aug-11 10:30N 37°56' E 023°37'0 0.0
2018-Aug-11 10:00N 37°56' E 023°37'0 0.0
2018-Aug-11 09:30N 37°56' E 023°37'0 0.0
2018-Aug-11 09:00N 37°56' E 023°37'0 0.0
2018-Aug-11 08:30N 37°56' E 023°37'0 0.0
2018-Aug-11 08:00N 37°56' E 023°37'0 0.0
2018-Aug-11 07:30N 37°56' E 023°37'0 0.0
2018-Aug-11 07:00N 37°56' E 023°37'0 0.0
2018-Aug-11 06:30N 37°56' E 023°37'0 0.0
2018-Aug-11 06:00N 37°56' E 023°37'0 0.0
2018-Aug-11 05:30N 37°56' E 023°37'0 0.0
2018-Aug-11 05:00N 37°56' E 023°37'0 0.0
2018-Aug-11 04:30N 37°56' E 023°37'0 0.0
2018-Aug-11 04:00N 37°56' E 023°37'0 0.0
2018-Aug-11 03:30N 37°56' E 023°37'0 0.0
2018-Aug-11 03:00N 37°56' E 023°37'0 0.0
2018-Aug-11 02:30N 37°56' E 023°37'0 0.0
2018-Aug-11 02:00N 37°56' E 023°37'0 0.0
2018-Aug-11 01:30N 37°56' E 023°37'0 0.2
2018-Aug-11 01:00N 37°56' E 023°37'2 3.6
2018-Aug-11 00:30N 37°55' E 023°36'612.9
2018-Aug-11 00:00N 37°49' E 023°41'510.4
2018-Aug-10 23:30N 37°44' E 023°43'5 9.8
2018-Aug-10 23:00N 37°40' E 023°45'610.9
2018-Aug-10 22:29N 37°34' E 023°46'31 8.3
2018-Aug-10 18:49N 37°07' E 023°29'410.7
2018-Aug-10 18:27N 37°07' E 023°24'  
2018-Aug-05 01:12N 43°52' E 013°54'2218.1
2018-Aug-05 00:01N 44°03' E 013°28'118.1
2018-Aug-04 23:57N 44°04' E 013°26'818.1
2018-Aug-04 23:29N 44°09' E 013°17'817.6
2018-Aug-04 23:00N 44°16' E 013°11'917.7
2018-Aug-04 22:30N 44°25' E 013°07'1317.6
2018-Aug-04 21:46N 44°37' E 013°01'517.9
2018-Aug-04 21:30N 44°41' E 012°59'917.9
2018-Aug-04 21:00N 44°50' E 012°54'917.7
2018-Aug-04 20:29N 44°58' E 012°48'918.0
2018-Aug-04 20:00N 45°05' E 012°42'917.7
2018-Aug-04 19:31N 45°11' E 012°32'  

Dump ship's entire track history